Time;durP1;ratioP1;P1;durP2;ratioP2;P2;SDS_P1;SDS_P2;PMS_P1;PMS_P2;Temp;Humidity;BMP_temperature;BMP_pressure;BME280_temperature;BME280_humidity;BME280_pressure;Samples;Min_cycle;Max_cycle;Signal;HPM_P1;HPM_P2
2022/03/17 00:01:50;;;;;;;50.00;21.77;;;;;;;4.80;66.63;103084.78;4968317;28;20035;-77
2022/03/17 00:04:15;;;;;;;43.40;20.65;;;;;;;4.75;66.83;103089.72;4966142;28;20523;-77
2022/03/17 00:06:41;;;;;;;47.47;21.83;;;;;;;4.65;67.36;103088.94;4968054;28;20031;-76
2022/03/17 00:09:07;;;;;;;50.35;23.10;;;;;;;4.56;67.74;103093.38;4964031;28;20404;-76
2022/03/17 00:11:34;;;;;;;51.03;21.13;;;;;;;4.53;67.44;103080.41;4964888;28;20111;-77
2022/03/17 00:14:01;;;;;;;50.97;21.90;;;;;;;4.58;66.83;103088.72;4965808;28;20801;-77
2022/03/17 00:16:28;;;;;;;46.30;20.83;;;;;;;4.64;66.99;103087.28;4964238;28;20030;-77
2022/03/17 00:18:55;;;;;;;45.42;20.65;;;;;;;4.66;66.71;103087.97;4963028;28;20031;-76
2022/03/17 00:21:21;;;;;;;51.95;21.85;;;;;;;4.65;66.87;103087.13;4962197;28;20600;-76
2022/03/17 00:23:46;;;;;;;44.85;20.40;;;;;;;4.64;66.95;103081.97;4961730;28;20034;-76
2022/03/17 00:26:12;;;;;;;43.50;21.30;;;;;;;4.65;66.27;103073.03;4962645;28;20030;-76
2022/03/17 00:28:37;;;;;;;45.92;20.95;;;;;;;4.67;66.37;103071.03;4962147;28;20023;-76
2022/03/17 00:31:03;;;;;;;50.22;21.40;;;;;;;4.67;66.32;103053.31;4963135;28;20478;-76
2022/03/17 00:33:28;;;;;;;44.05;21.27;;;;;;;4.67;66.25;103055.09;4962725;28;20255;-76
2022/03/17 00:35:54;;;;;;;38.83;19.38;;;;;;;4.66;65.98;103054.28;4965238;28;20488;-76
2022/03/17 00:38:19;;;;;;;51.63;23.25;;;;;;;4.62;66.08;103052.91;4963052;28;20030;-76
2022/03/17 00:40:46;;;;;;;46.65;22.05;;;;;;;4.61;66.11;103056.56;4963730;28;20397;-76
2022/03/17 00:43:13;;;;;;;50.97;22.73;;;;;;;4.61;66.23;103061.03;4964022;28;20256;-76
2022/03/17 00:45:41;;;;;;;47.03;23.13;;;;;;;4.59;66.30;103061.19;4961870;28;20497;-76
2022/03/17 00:48:07;;;;;;;49.78;23.85;;;;;;;4.58;66.87;103062.19;4965202;28;20040;-77
2022/03/17 00:50:34;;;;;;;52.05;23.33;;;;;;;4.57;66.59;103067.66;4963363;28;20417;-76
2022/03/17 00:53:00;;;;;;;51.55;24.17;;;;;;;4.54;66.91;103063.47;4964031;28;20027;-77
2022/03/17 00:55:27;;;;;;;51.33;23.05;;;;;;;4.49;67.69;103058.63;4963976;28;20025;-76
2022/03/17 00:57:52;;;;;;;51.70;23.55;;;;;;;4.42;68.25;103068.16;4961718;28;20032;-76
2022/03/17 01:00:20;;;;;;;56.10;25.08;;;;;;;4.37;68.35;103067.78;4963743;28;20038;-76
2022/03/17 01:02:51;;;;;;;52.08;23.50;;;;;;;4.30;69.04;103053.44;4963305;28;20116;-77
2022/03/17 01:05:17;;;;;;;47.35;22.23;;;;;;;4.32;68.71;103056.81;4959047;28;20161;-76
2022/03/17 01:07:44;;;;;;;49.35;23.15;;;;;;;4.35;68.43;103048.53;4966471;28;20433;-77
2022/03/17 01:10:13;;;;;;;48.72;21.55;;;;;;;4.38;68.08;103053.53;4961987;28;20225;-77
2022/03/17 01:12:39;;;;;;;46.03;23.08;;;;;;;4.41;67.90;103057.69;4962187;28;20030;-77
2022/03/17 01:15:06;;;;;;;44.50;21.33;;;;;;;4.43;67.63;103039.81;4964469;28;20033;-77
2022/03/17 01:17:32;;;;;;;46.70;21.75;;;;;;;4.46;67.64;103036.84;4965212;28;20034;-76
2022/03/17 01:19:57;;;;;;;52.40;22.83;;;;;;;4.46;67.26;103034.19;4962493;28;20034;-76
2022/03/17 01:22:23;;;;;;;41.92;19.67;;;;;;;4.44;67.38;103031.69;4960844;28;20026;-76
2022/03/17 01:24:51;;;;;;;44.03;20.65;;;;;;;4.42;67.32;103033.66;4963700;28;20088;-76
2022/03/17 01:27:20;;;;;;;48.85;21.73;;;;;;;4.42;67.06;103031.00;4965849;28;20026;-76
2022/03/17 01:29:47;;;;;;;52.25;24.98;;;;;;;4.39;67.31;103026.00;4960812;28;20054;-76
2022/03/17 01:32:13;;;;;;;51.17;22.45;;;;;;;4.39;67.34;103030.47;4963078;28;20093;-76
2022/03/17 01:34:38;;;;;;;48.75;21.70;;;;;;;4.38;67.11;103019.03;4964805;28;20121;-76
2022/03/17 01:37:04;;;;;;;41.08;19.58;;;;;;;4.39;67.10;103027.81;4962825;28;20022;-76
2022/03/17 01:39:29;;;;;;;54.78;24.40;;;;;;;4.33;67.68;103023.97;4961038;28;20034;-76
2022/03/17 01:41:58;;;;;;;53.92;24.13;;;;;;;4.21;67.95;103031.31;4963084;28;20034;-76
2022/03/17 01:44:25;;;;;;;47.53;22.95;;;;;;;4.11;68.39;103032.34;4963344;28;20045;-76
2022/03/17 01:49:39;;;;;;;51.72;25.08;;;;;;;3.96;69.05;103045.31;4965545;28;20081;-76
2022/03/17 01:52:05;;;;;;;47.97;23.73;;;;;;;3.96;69.07;103049.78;4963672;28;20547;-76
2022/03/17 01:54:32;;;;;;;54.35;23.90;;;;;;;3.96;69.01;103049.78;4963594;28;20035;-76
2022/03/17 01:56:58;;;;;;;43.92;22.88;;;;;;;4.01;68.87;103052.81;4960046;28;20485;-76
2022/03/17 01:59:25;;;;;;;47.42;22.40;;;;;;;4.06;68.38;103050.53;4958243;28;20019;-76
2022/03/17 02:01:56;;;;;;;50.65;21.60;;;;;;;4.08;68.13;103045.91;4966494;28;20485;-76
2022/03/17 02:04:22;;;;;;;47.20;22.10;;;;;;;4.09;67.90;103044.91;4965770;28;20094;-76
2022/03/17 02:06:48;;;;;;;45.10;21.25;;;;;;;4.10;68.05;103054.56;4960561;28;20023;-76
2022/03/17 02:09:14;;;;;;;50.22;21.70;;;;;;;4.11;67.67;103053.56;4962123;28;20051;-76
2022/03/17 02:17:47;;;;;;;45.45;20.27;;;;;;;4.02;67.13;103047.34;4964699;28;20192;-76
2022/03/17 02:20:15;;;;;;;45.83;20.98;;;;;;;4.01;67.29;103042.19;4967304;28;20034;-76
2022/03/17 02:22:51;;;;;;;46.42;20.30;;;;;;;3.94;67.01;103037.47;4963568;28;20035;-76
2022/03/17 02:25:36;;;;;;;43.38;20.80;;;;;;;3.94;67.02;103041.94;4967803;28;20121;-76
2022/03/17 02:28:07;;;;;;;46.38;22.30;;;;;;;3.87;67.24;103033.75;4963118;28;20068;-76
2022/03/17 02:30:35;;;;;;;42.28;20.00;;;;;;;3.81;67.66;103034.34;4970021;28;20026;-76
2022/03/17 02:33:10;;;;;;;47.22;21.08;;;;;;;3.73;67.79;103034.22;4962571;28;20406;-76
2022/03/17 02:35:37;;;;;;;;;;;;;;;3.64;68.52;103035.13;4967778;28;20030;-76
2022/03/17 02:38:03;;;;;;;42.78;21.77;;;;;;;3.78;68.00;103032.00;4965603;28;19996;-76
2022/03/17 02:40:30;;;;;;;48.30;22.58;;;;;;;3.75;68.18;103040.22;4964508;28;20061;-76
2022/03/17 02:42:57;;;;;;;47.72;22.40;;;;;;;3.76;68.03;103033.94;4964033;28;20031;-76
2022/03/17 02:45:22;;;;;;;48.55;22.83;;;;;;;3.79;67.85;103038.97;4965694;28;20053;-76
2022/03/17 02:47:48;;;;;;;48.92;22.83;;;;;;;3.82;68.14;103043.13;4968674;28;20022;-76
2022/03/17 02:50:14;;;;;;;51.28;21.95;;;;;;;3.82;67.96;103043.97;4966383;28;20085;-76
2022/03/17 02:52:40;;;;;;;49.47;23.10;;;;;;;3.77;68.22;103042.72;4964167;28;20023;-76
2022/03/17 02:55:08;;;;;;;50.05;22.33;;;;;;;3.70;68.71;103045.13;4968441;28;20015;-76
2022/03/17 02:57:34;;;;;;;47.45;21.42;;;;;;;3.66;69.05;103048.22;4962520;28;20635;-76
2022/03/17 02:59:59;;;;;;;51.15;23.15;;;;;;;3.68;68.76;103035.66;4969864;28;20023;-76
2022/03/17 03:02:25;;;;;;;47.28;22.70;;;;;;;3.70;68.91;103034.53;4966538;28;20027;-76
2022/03/17 03:04:50;;;;;;;44.67;20.88;;;;;;;3.67;68.44;103034.00;4965384;28;20046;-76
2022/03/17 03:07:16;;;;;;;46.75;20.63;;;;;;;3.64;68.94;103027.16;4968316;28;20034;-76
2022/03/17 03:09:42;;;;;;;45.17;20.15;;;;;;;3.65;68.44;103034.13;4967081;28;20030;-76
2022/03/17 03:12:08;;;;;;;43.03;20.23;;;;;;;3.66;67.87;103030.50;4964936;28;20045;-76
2022/03/17 03:14:34;;;;;;;40.33;19.58;;;;;;;3.67;68.24;103032.19;4966412;28;20034;-76
2022/03/17 03:16:59;;;;;;;44.50;21.05;;;;;;;3.68;68.03;103033.84;4965129;28;20019;-76
2022/03/17 03:19:25;;;;;;;46.53;21.13;;;;;;;3.67;68.14;103034.81;4961781;28;20018;-76
2022/03/17 03:21:51;;;;;;;44.65;21.52;;;;;;;3.67;68.17;103032.19;4970715;28;20066;-76
2022/03/17 03:24:16;;;;;;;44.63;21.13;;;;;;;3.69;68.19;103034.69;4965609;28;20030;-76
2022/03/17 03:26:44;;;;;;;45.95;21.63;;;;;;;3.68;68.08;103033.00;4967676;28;20038;-76
2022/03/17 03:31:43;;;;;;;46.65;22.70;;;;;;;3.67;68.04;103042.78;4964490;28;20037;-76
2022/03/17 03:34:08;;;;;;;48.80;22.98;;;;;;;3.68;68.29;103047.09;4967078;28;20400;-76
2022/03/17 03:39:18;;;;;;;61.17;29.20;;;;;;;3.63;68.42;103038.75;4962211;28;20038;-81
2022/03/17 03:41:43;;;;;;;54.10;25.38;;;;;;;3.61;68.71;103040.72;4961611;28;20034;-80
2022/03/17 03:44:14;;;;;;;59.17;27.25;;;;;;;3.61;68.38;103041.56;4967831;28;20053;-81
2022/03/17 03:46:40;;;;;;;60.47;29.73;;;;;;;3.63;68.38;103041.41;4959514;28;20039;-78
2022/03/17 03:49:06;;;;;;;53.90;25.65;;;;;;;3.63;68.34;103039.59;4964467;28;20058;-78
2022/03/17 03:51:31;;;;;;;51.97;25.02;;;;;;;3.63;68.30;103036.09;4961810;28;20030;-77
2022/03/17 03:56:53;;;;;;;45.88;22.13;;;;;;;3.57;67.94;103041.97;4962978;28;20504;-77
2022/03/17 03:59:21;;;;;;;53.70;24.15;;;;;;;3.60;67.87;103031.09;4963827;28;20031;-78
2022/03/17 04:01:48;;;;;;;45.08;21.50;;;;;;;3.59;67.74;103043.53;4965626;28;20089;-77
2022/03/17 04:04:20;;;;;;;43.78;21.80;;;;;;;3.57;68.01;103034.03;4966572;28;20101;-77
2022/03/17 04:06:48;;;;;;;47.75;21.60;;;;;;;3.55;67.70;103034.16;4963850;28;20023;-78
2022/03/17 04:09:15;;;;;;;50.67;23.00;;;;;;;3.53;67.89;103022.88;4965864;28;20035;-78
2022/03/17 04:11:42;;;;;;;42.67;20.48;;;;;;;3.49;67.92;103025.97;4966550;28;20170;-78
2022/03/17 04:14:08;;;;;;;46.95;19.70;;;;;;;3.48;67.79;103038.41;4966493;28;20042;-78
2022/03/17 04:16:34;;;;;;;44.67;22.63;;;;;;;3.47;68.26;103036.72;4966045;28;20085;-78
2022/03/17 04:19:00;;;;;;;46.00;21.63;;;;;;;3.47;67.86;103030.59;4962069;28;20114;-79
2022/03/17 04:21:26;;;;;;;50.33;22.25;;;;;;;3.45;67.99;103020.13;4969056;28;20023;-78
2022/03/17 04:23:52;;;;;;;48.53;21.60;;;;;;;3.43;68.01;103010.66;4967677;28;20582;-80
2022/03/17 04:26:17;;;;;;;47.65;21.02;;;;;;;3.41;67.87;103016.13;4969526;28;20023;-77
2022/03/17 04:28:43;;;;;;;46.97;21.58;;;;;;;3.42;68.10;103014.31;4964857;28;20393;-77
2022/03/17 04:31:09;;;;;;;50.70;21.88;;;;;;;3.40;68.18;103024.19;4969762;28;20513;-78
2022/03/17 04:33:35;;;;;;;47.17;22.25;;;;;;;3.35;68.71;103021.97;4970284;28;20029;-77
2022/03/17 04:36:02;;;;;;;54.65;24.55;;;;;;;3.33;68.73;103016.00;4968867;28;20106;-78
2022/03/17 04:38:28;;;;;;;48.30;21.40;;;;;;;3.31;68.67;103016.13;4968535;28;20019;-78
2022/03/17 04:40:53;;;;;;;50.58;21.73;;;;;;;3.32;68.46;103017.81;4970464;28;20088;-78
2022/03/17 04:43:20;;;;;;;49.10;24.23;;;;;;;3.34;68.29;103029.09;4967769;28;20034;-78
2022/03/17 04:45:46;;;;;;;47.80;22.73;;;;;;;3.35;68.37;103024.63;4969272;28;20038;-77
2022/03/17 04:48:13;;;;;;;56.88;25.67;;;;;;;3.30;68.92;103025.06;4970104;28;20031;-78
2022/03/17 04:50:39;;;;;;;52.03;25.08;;;;;;;3.24;69.15;103015.06;4966977;28;20370;-79
2022/03/17 04:55:49;;;;;;;56.53;26.77;;;;;;;3.17;69.72;103016.59;4969191;28;20025;-79
2022/03/17 04:58:15;;;;;;;54.30;25.40;;;;;;;3.15;70.00;103020.38;4965304;28;20034;-77
2022/03/17 05:00:41;;;;;;;58.85;26.83;;;;;;;3.12;70.01;103016.19;4969946;28;20046;-78
2022/03/17 05:03:08;;;;;;;55.35;25.70;;;;;;;3.14;69.92;103021.34;4969653;28;20093;-78
2022/03/17 05:05:34;;;;;;;53.90;24.42;;;;;;;3.18;69.76;103018.25;4968606;28;21016;-77
2022/03/17 05:07:59;;;;;;;53.92;27.08;;;;;;;3.20;69.41;103021.59;4967920;28;20031;-78
2022/03/17 05:10:25;;;;;;;54.53;25.63;;;;;;;3.23;69.16;103024.00;4969417;28;20029;-78
2022/03/17 05:12:50;;;;;;;53.92;23.92;;;;;;;3.23;69.32;103023.13;4968932;28;20034;-78
2022/03/17 05:15:16;;;;;;;49.10;22.70;;;;;;;3.23;69.01;103005.44;4968553;28;20022;-80
2022/03/17 05:17:42;;;;;;;43.08;20.73;;;;;;;3.23;69.13;103013.38;4968335;28;20030;-78
2022/03/17 05:20:12;;;;;;;47.80;22.77;;;;;;;3.19;68.63;103017.28;4969994;28;20026;-79
2022/03/17 05:22:41;;;;;;;49.30;22.30;;;;;;;3.14;69.08;103016.88;4968078;28;20392;-79
2022/03/17 05:25:11;;;;;;;49.28;22.88;;;;;;;3.11;68.90;103019.00;4967409;28;20126;-78
2022/03/17 05:27:41;;;;;;;45.50;22.05;;;;;;;3.11;68.80;103019.81;4964368;28;20136;-77
2022/03/17 05:30:10;;;;;;;52.55;24.80;;;;;;;3.12;69.01;103018.84;4968445;28;20031;-78
2022/03/17 05:32:36;;;;;;;52.55;22.58;;;;;;;3.12;69.32;103018.84;4968353;28;20508;-79
2022/03/17 05:35:03;;;;;;;51.22;25.17;;;;;;;3.13;69.08;103023.16;4967601;28;20033;-77
2022/03/17 05:37:28;;;;;;;50.85;24.08;;;;;;;3.13;69.38;103023.16;4964869;28;20096;-80
2022/03/17 05:39:54;;;;;;;55.90;26.17;;;;;;;3.15;69.50;103031.81;4970140;28;20026;-77
2022/03/17 05:42:19;;;;;;;55.90;25.95;;;;;;;3.15;69.51;103033.63;4966634;28;20023;-79
2022/03/17 05:44:45;;;;;;;56.03;26.10;;;;;;;3.15;69.57;103039.75;4966543;28;20081;-78
2022/03/17 05:47:10;;;;;;;67.95;26.75;;;;;;;3.14;70.03;103037.25;4968128;28;20039;-79
2022/03/17 05:49:36;;;;;;;58.60;27.42;;;;;;;3.12;70.35;103042.69;4967886;28;20106;-77
2022/03/17 05:52:03;;;;;;;62.08;27.77;;;;;;;3.11;70.70;103038.38;4975435;28;20034;-78
2022/03/17 05:54:28;;;;;;;61.85;27.67;;;;;;;3.11;70.80;103048.13;4974066;28;20108;-77
2022/03/17 05:56:54;;;;;;;57.15;26.20;;;;;;;3.10;71.21;103038.50;4971658;28;20046;-78
2022/03/17 05:59:19;;;;;;;58.35;26.17;;;;;;;3.10;71.15;103044.66;4971198;28;20030;-78
2022/03/17 06:01:45;;;;;;;59.88;28.15;;;;;;;3.11;70.72;103027.78;4968590;28;21066;-80
2022/03/17 06:04:10;;;;;;;58.53;25.15;;;;;;;3.14;70.59;103031.94;4971117;28;20037;-77
2022/03/17 06:06:36;;;;;;;56.78;24.60;;;;;;;3.14;70.74;103037.25;4970674;28;20030;-80
2022/03/17 06:09:01;;;;;;;53.72;24.52;;;;;;;3.17;70.79;103029.00;4972038;28;20022;-77
2022/03/17 06:11:28;;;;;;;54.58;24.95;;;;;;;3.18;70.47;103034.16;4973552;28;20030;-80
2022/03/17 06:13:56;;;;;;;58.00;25.98;;;;;;;3.19;70.24;103027.88;4972711;28;20038;-78
2022/03/17 06:16:23;;;;;;;61.92;27.90;;;;;;;3.18;70.68;103028.84;4972644;28;20141;-81
2022/03/17 06:18:49;;;;;;;62.47;26.92;;;;;;;3.18;70.59;103026.22;4973767;28;20097;-78
2022/03/17 06:21:15;;;;;;;55.95;25.35;;;;;;;3.20;70.93;103026.06;4975747;28;20031;-77
2022/03/17 06:23:40;;;;;;;69.63;30.67;;;;;;;3.21;70.87;103031.22;4974617;28;20109;-77
2022/03/17 06:26:06;;;;;;;82.03;33.95;;;;;;;3.22;71.70;103030.22;4975602;28;20026;-77
2022/03/17 06:28:31;;;;;;;73.20;30.67;;;;;;;3.26;72.12;103039.59;4970506;28;20042;-79
2022/03/17 06:30:57;;;;;;;76.88;34.08;;;;;;;3.29;72.54;103036.66;4976299;28;20030;-77
2022/03/17 06:33:23;;;;;;;81.43;34.38;;;;;;;3.32;72.67;103044.31;4970833;28;20657;-79
2022/03/17 06:35:49;;;;;;;72.30;32.65;;;;;;;3.37;72.91;103035.91;4975528;28;20022;-78
2022/03/17 06:38:14;;;;;;;75.55;32.80;;;;;;;3.41;72.98;103033.81;4976035;28;20042;-77
2022/03/17 06:40:41;;;;;;;77.93;32.88;;;;;;;3.47;72.96;103041.19;4975188;28;20081;-78
2022/03/17 06:43:07;;;;;;;79.03;33.42;;;;;;;3.51;72.96;103046.06;4972007;28;20038;-79
2022/03/17 06:45:33;;;;;;;71.35;31.58;;;;;;;3.55;73.01;103054.53;4970795;28;20035;-78
2022/03/17 06:47:59;;;;;;;80.35;35.33;;;;;;;3.58;73.02;103064.84;4969000;28;20141;-80
2022/03/17 06:50:25;;;;;;;88.75;37.20;;;;;;;3.59;73.20;103061.22;4973745;28;20110;-78
2022/03/17 06:52:51;;;;;;;85.40;36.55;;;;;;;3.62;73.65;103055.66;4974905;28;20081;-78
2022/03/17 06:55:18;;;;;;;86.43;38.25;;;;;;;3.64;73.54;103065.13;4972704;28;20038;-78
2022/03/17 06:57:44;;;;;;;88.50;36.42;;;;;;;3.66;74.17;103066.78;4973267;28;20560;-78
2022/03/17 07:00:12;;;;;;;86.25;37.75;;;;;;;3.68;74.68;103067.47;4975680;28;20031;-78
2022/03/17 07:02:38;;;;;;;90.18;39.25;;;;;;;3.71;74.64;103073.31;4967077;28;20030;-79
2022/03/17 07:05:04;;;;;;;94.82;40.08;;;;;;;3.76;74.96;103064.91;4972212;28;20027;-78
2022/03/17 07:07:30;;;;;;;96.63;37.80;;;;;;;3.79;74.66;103069.94;4972172;28;20027;-78
2022/03/17 07:09:56;;;;;;;93.28;38.80;;;;;;;3.82;74.75;103065.19;4972707;28;20041;-78
2022/03/17 07:12:22;;;;;;;91.07;40.10;;;;;;;3.88;75.00;103069.06;4971541;28;20057;-81
2022/03/17 07:14:47;;;;;;;86.53;37.22;;;;;;;3.91;74.85;103063.44;4971820;28;20089;-79
2022/03/17 07:17:13;;;;;;;94.65;39.05;;;;;;;3.95;75.18;103072.81;4966533;28;20089;-77
2022/03/17 07:19:38;;;;;;;99.57;40.92;;;;;;;3.99;75.24;103076.00;4971548;28;20026;-79
2022/03/17 07:22:04;;;;;;;90.30;39.95;;;;;;;4.02;75.28;103076.53;4967590;28;20242;-78
2022/03/17 07:24:30;;;;;;;90.25;39.78;;;;;;;4.06;75.25;103077.06;4971969;28;20034;-78
2022/03/17 07:26:58;;;;;;;99.40;39.25;;;;;;;4.09;75.58;103066.97;4966063;28;20027;-78
2022/03/17 07:29:23;;;;;;;95.18;38.92;;;;;;;4.15;75.21;103070.88;4970725;28;20639;-77
2022/03/17 07:31:49;;;;;;;85.70;37.38;;;;;;;4.18;75.46;103076.72;4971841;28;20106;-78
2022/03/17 07:34:14;;;;;;;94.93;39.45;;;;;;;4.21;75.40;103071.09;4972077;28;20109;-78
2022/03/17 07:36:40;;;;;;;98.75;41.10;;;;;;;4.26;75.35;103073.31;4970853;28;20102;-78
2022/03/17 07:39:06;;;;;;;88.47;41.13;;;;;;;4.29;75.38;103065.03;4967651;28;20023;-78
2022/03/17 07:41:32;;;;;;;98.88;42.60;;;;;;;4.34;75.68;103070.75;4969651;28;20385;-77
2022/03/17 07:43:57;;;;;;;99.15;39.75;;;;;;;4.39;75.52;103072.94;4970859;28;20456;-78
2022/03/17 07:46:23;;;;;;;87.95;40.25;;;;;;;4.43;75.36;103066.34;4971243;28;20527;-79
2022/03/17 07:48:49;;;;;;;92.40;40.60;;;;;;;4.49;75.62;103071.91;4967181;28;20053;-79
2022/03/17 07:51:15;;;;;;;90.63;39.47;;;;;;;4.54;75.52;103077.59;4971785;28;20613;-78
2022/03/17 07:53:40;;;;;;;86.18;38.60;;;;;;;4.59;75.34;103077.13;4970893;28;20440;-78
2022/03/17 07:56:10;;;;;;;96.13;40.35;;;;;;;4.63;75.31;103070.53;4970490;28;20485;-77
2022/03/17 07:58:37;;;;;;;103.97;41.83;;;;;;;4.65;75.56;103065.06;4969313;28;20030;-81
2022/03/17 08:01:03;;;;;;;93.82;40.90;;;;;;;4.68;75.73;103057.66;4967613;28;20036;-78
2022/03/17 08:03:28;;;;;;;114.05;44.97;;;;;;;4.71;75.42;103064.47;4965244;28;20500;-78
2022/03/17 08:05:54;;;;;;;99.43;43.08;;;;;;;4.73;75.80;103059.84;4964603;28;20031;-79
2022/03/17 08:08:20;;;;;;;100.18;42.33;;;;;;;4.77;75.73;103061.19;4968772;28;20102;-80
2022/03/17 08:10:46;;;;;;;102.00;44.35;;;;;;;4.81;75.92;103062.53;4964262;28;20511;-78
2022/03/17 08:13:12;;;;;;;101.15;43.20;;;;;;;4.84;75.91;103062.22;4969049;28;20030;-79
2022/03/17 08:15:39;;;;;;;108.18;44.60;;;;;;;4.89;75.61;103067.94;4960216;28;20473;-79
2022/03/17 08:18:08;;;;;;;108.63;44.55;;;;;;;4.92;75.92;103059.66;4970245;28;20397;-78
2022/03/17 08:20:41;;;;;;;106.43;45.65;;;;;;;4.92;75.98;103054.34;4970849;28;20034;-78
2022/03/17 08:23:07;;;;;;;110.35;42.65;;;;;;;4.97;75.95;103048.56;4960197;28;20029;-78
2022/03/17 08:25:34;;;;;;;106.85;43.45;;;;;;;5.00;75.98;103046.41;4970907;28;20117;-79
2022/03/17 08:28:02;;;;;;;111.82;44.30;;;;;;;5.03;76.09;103055.94;4967138;28;20023;-78
2022/03/17 08:30:29;;;;;;;107.72;44.95;;;;;;;5.06;75.76;103051.13;4969456;28;20050;-77
2022/03/17 08:32:55;;;;;;;98.30;44.22;;;;;;;5.08;75.74;103053.63;4978351;28;20031;-78
2022/03/17 08:35:20;;;;;;;106.25;44.50;;;;;;;5.10;75.88;103047.16;4964107;28;20031;-77
2022/03/17 08:37:46;;;;;;;111.30;44.58;;;;;;;5.14;75.59;103048.53;4960644;28;20684;-78
2022/03/17 08:40:14;;;;;;;96.45;41.95;;;;;;;5.15;75.46;103047.53;4957398;28;20391;-78
2022/03/17 08:42:41;;;;;;;96.88;43.17;;;;;;;5.19;75.44;103056.00;4963611;28;20030;-79
2022/03/17 08:50:39;;;;;;;96.45;44.13;;;;;;;5.23;75.29;103045.94;4959452;28;20045;-80
2022/03/17 08:53:05;;;;;;;98.70;42.38;;;;;;;5.29;75.08;103055.94;4961083;28;20110;-78
2022/03/17 08:55:31;;;;;;;98.47;42.58;;;;;;;5.33;75.04;103054.63;4959255;28;20023;-78
2022/03/17 08:57:57;;;;;;;100.35;43.15;;;;;;;5.36;75.01;103059.63;4960398;28;20282;-79
2022/03/17 09:00:23;;;;;;;105.85;45.58;;;;;;;5.38;74.82;103065.59;4959543;28;20600;-78
2022/03/17 09:02:49;;;;;;;97.50;42.50;;;;;;;5.41;74.81;103060.00;4964952;28;20038;-78
2022/03/17 09:05:14;;;;;;;89.03;42.05;;;;;;;5.39;75.03;103057.50;4959855;28;20045;-78
2022/03/17 09:07:40;;;;;;;97.60;42.60;;;;;;;5.38;74.72;103053.13;4957977;28;20505;-78
2022/03/17 09:10:06;;;;;;;97.40;43.53;;;;;;;5.39;75.04;103054.84;4955061;28;20536;-78
2022/03/17 09:12:33;;;;;;;97.80;44.38;;;;;;;5.43;75.00;103063.31;4960280;28;20027;-77
2022/03/17 09:14:59;;;;;;;99.97;42.90;;;;;;;5.46;75.23;103066.50;4962657;28;20404;-78
2022/03/17 09:17:26;;;;;;;100.32;44.75;;;;;;;5.53;74.67;103068.53;4964302;28;20116;-79
2022/03/17 09:19:52;;;;;;;94.82;44.30;;;;;;;5.55;74.79;103067.38;4961999;28;20030;-79
2022/03/17 09:22:18;;;;;;;106.78;48.03;;;;;;;5.59;74.67;103065.25;4959286;28;20540;-79
2022/03/17 09:24:46;;;;;;;100.85;46.75;;;;;;;5.64;74.82;103063.78;4958350;28;20031;-78
2022/03/17 09:27:11;;;;;;;105.80;45.38;;;;;;;5.68;74.58;103067.78;4963935;28;20423;-78
2022/03/17 09:29:40;;;;;;;100.57;46.50;;;;;;;5.69;74.70;103066.78;4963320;28;20102;-80
2022/03/17 09:32:06;;;;;;;105.22;47.58;;;;;;;5.72;74.52;103076.25;4965731;28;20097;-78
2022/03/17 09:34:32;;;;;;;98.75;44.28;;;;;;;5.77;74.78;103076.63;4959484;28;20464;-80
2022/03/17 09:36:57;;;;;;;106.22;46.05;;;;;;;5.82;74.51;103081.47;4957538;28;20030;-78
2022/03/17 09:42:07;;;;;;;100.82;45.13;;;;;;;5.87;74.43;103081.81;4956976;28;20054;-78
2022/03/17 09:44:34;;;;;;;101.95;42.85;;;;;;;5.91;74.23;103078.72;4957406;28;20528;-79
2022/03/17 09:47:03;;;;;;;101.78;44.78;;;;;;;5.94;74.13;103078.41;4964579;28;20448;-78
2022/03/17 09:49:30;;;;;;;103.25;45.80;;;;;;;5.99;73.98;103081.41;4961441;28;20039;-79
2022/03/17 09:51:58;;;;;;;101.65;46.42;;;;;;;6.04;73.80;103079.09;4961918;28;20026;-78
2022/03/17 09:54:24;;;;;;;100.80;45.80;;;;;;;6.10;73.95;103072.28;4961753;28;20035;-78
2022/03/17 09:56:50;;;;;;;98.32;45.00;;;;;;;6.13;73.69;103069.31;4959182;28;20165;-80
2022/03/17 09:59:17;;;;;;;95.78;45.65;;;;;;;6.17;73.86;103075.16;4957672;28;20167;-77
2022/03/17 10:01:47;;;;;;;103.88;46.38;;;;;;;6.22;73.48;103078.97;4959784;28;20102;-80
2022/03/17 10:04:13;;;;;;;104.05;44.45;;;;;;;6.29;73.37;103076.53;4960776;28;20047;-78
2022/03/17 10:06:39;;;;;;;101.55;45.03;;;;;;;6.34;73.26;103090.19;4963081;28;20031;-78
2022/03/17 10:09:04;;;;;;;95.10;45.80;;;;;;;6.38;73.17;103074.69;4958429;28;20477;-78
2022/03/17 10:11:31;;;;;;;97.28;46.10;;;;;;;6.46;72.87;103082.69;4956530;28;20031;-80
2022/03/17 10:13:59;;;;;;;101.85;45.10;;;;;;;6.53;72.75;103078.38;4958498;28;20050;-78
2022/03/17 10:16:27;;;;;;;92.22;45.45;;;;;;;6.60;72.60;103068.72;4960734;28;20035;-78
2022/03/17 10:18:56;;;;;;;91.10;44.45;;;;;;;6.66;72.73;103062.75;4961215;28;20181;-81
2022/03/17 10:21:26;;;;;;;96.00;44.45;;;;;;;6.73;72.63;103069.09;4954759;28;20505;-78
2022/03/17 10:23:56;;;;;;;100.97;46.45;;;;;;;6.80;72.42;103069.25;4957694;28;20030;-80
2022/03/17 10:26:46;;;;;;;94.38;44.17;;;;;;;6.78;72.23;103061.41;4961306;28;20230;-78
2022/03/17 10:29:20;;;;;;;90.40;44.30;;;;;;;6.82;72.45;103062.78;4960122;28;20043;-77
2022/03/17 10:32:01;;;;;;;91.40;43.67;;;;;;;6.89;72.32;103065.59;4960821;28;20027;-78
2022/03/17 10:34:33;;;;;;;98.30;44.55;;;;;;;6.92;71.89;103058.09;4960808;28;20031;-77
2022/03/17 10:37:08;;;;;;;100.15;44.92;;;;;;;6.93;71.84;103067.75;4963663;28;20524;-77
2022/03/17 10:39:42;;;;;;;98.15;44.35;;;;;;;6.98;71.82;103060.06;4964208;28;20402;-78
2022/03/17 10:42:34;;;;;;;97.35;43.70;;;;;;;6.96;71.53;103063.91;4963674;28;20117;-78
2022/03/17 10:45:05;;;;;;;94.60;44.95;;;;;;;7.06;71.66;103069.91;4965716;28;20505;-78
2022/03/17 10:47:42;;;;;;;92.60;44.25;;;;;;;7.06;71.24;103066.41;4963485;28;20086;-78
2022/03/17 10:50:12;;;;;;;88.82;44.67;;;;;;;7.11;71.44;103070.22;4961984;28;20035;-78
2022/03/17 10:52:57;;;;;;;93.93;43.53;;;;;;;7.10;70.98;103060.56;4964289;28;20035;-78
2022/03/17 10:55:28;;;;;;;94.18;43.67;;;;;;;7.20;71.32;103063.91;4965232;28;20043;-79
2022/03/17 10:57:58;;;;;;;92.05;42.95;;;;;;;7.26;71.15;103057.06;4966421;28;20089;-79
2022/03/17 11:00:28;;;;;;;99.00;44.72;;;;;;;7.30;70.58;103066.38;4961153;28;20066;-78
2022/03/17 11:02:57;;;;;;;84.80;42.60;;;;;;;7.36;70.90;103062.19;4967617;28;20061;-77
2022/03/17 11:05:24;;;;;;;93.35;43.85;;;;;;;7.39;70.63;103061.88;4957862;28;20069;-77
2022/03/17 11:07:51;;;;;;;90.75;43.95;;;;;;;7.42;70.58;103054.34;4962889;28;20497;-78
2022/03/17 11:10:19;;;;;;;91.38;44.10;;;;;;;7.49;70.46;103062.50;4959286;28;20497;-79
2022/03/17 11:12:45;;;;;;;91.13;43.40;;;;;;;7.52;70.06;103070.16;4963455;28;20030;-78
2022/03/17 11:15:11;;;;;;;96.07;43.40;;;;;;;7.56;69.86;103056.31;4963506;28;20189;-78
2022/03/17 11:17:46;;;;;;;90.63;42.30;;;;;;;7.60;69.51;103061.31;4961340;28;20055;-80
2022/03/17 11:20:17;;;;;;;89.97;43.35;;;;;;;7.67;69.72;103059.59;4967444;28;20060;-78
2022/03/17 11:22:44;;;;;;;83.25;43.83;;;;;;;7.73;69.84;103065.09;4976079;28;20038;-78
2022/03/17 11:25:23;;;;;;;84.30;42.40;;;;;;;7.76;69.35;103069.25;4965357;28;20034;-78
2022/03/17 11:27:55;;;;;;;87.25;42.95;;;;;;;7.83;69.34;103068.38;4964029;28;20092;-78
2022/03/17 11:30:22;;;;;;;87.32;42.55;;;;;;;7.87;68.84;103075.03;4964403;28;20027;-80
2022/03/17 11:32:54;;;;;;;82.45;41.35;;;;;;;7.92;68.65;103069.19;4961845;28;20538;-78
2022/03/17 11:35:29;;;;;;;83.97;41.60;;;;;;;7.99;68.84;103070.16;4960393;28;20082;-78
2022/03/17 11:38:23;;;;;;;83.07;42.60;;;;;;;8.02;68.58;103071.63;4958176;28;20540;-78
2022/03/17 11:41:22;;;;;;;84.50;41.72;;;;;;;8.06;68.26;103068.44;4960421;28;20085;-78
2022/03/17 11:43:47;;;;;;;82.60;41.10;;;;;;;8.16;67.98;103063.72;4950418;28;20038;-81
2022/03/17 11:46:23;;;;;;;81.85;44.20;;;;;;;8.23;68.11;103065.69;4960170;28;20032;-78